sensor_id;sensor_type;location;lat;lon;timestamp;temperature;humidity
61094;DHT22;46976;52.942;6.810;2023-09-19T00:00:42;14.30;99.90
61094;DHT22;46976;52.942;6.810;2023-09-19T00:03:09;14.30;99.90
61094;DHT22;46976;52.942;6.810;2023-09-19T00:05:36;14.20;99.90
61094;DHT22;46976;52.942;6.810;2023-09-19T00:08:04;14.20;99.90
61094;DHT22;46976;52.942;6.810;2023-09-19T00:10:31;14.10;99.90
61094;DHT22;46976;52.942;6.810;2023-09-19T00:12:58;14.10;99.90
61094;DHT22;46976;52.942;6.810;2023-09-19T00:15:31;14.00;99.90
61094;DHT22;46976;52.942;6.810;2023-09-19T00:18:01;13.90;99.90
61094;DHT22;46976;52.942;6.810;2023-09-19T00:20:26;13.90;99.90
61094;DHT22;46976;52.942;6.810;2023-09-19T00:22:53;13.80;99.90
61094;DHT22;46976;52.942;6.810;2023-09-19T00:25:20;13.80;99.90
61094;DHT22;46976;52.942;6.810;2023-09-19T00:27:46;13.70;99.90
61094;DHT22;46976;52.942;6.810;2023-09-19T00:30:17;13.60;99.90
61094;DHT22;46976;52.942;6.810;2023-09-19T00:32:50;13.60;99.90
61094;DHT22;46976;52.942;6.810;2023-09-19T00:35:20;13.60;99.90
61094;DHT22;46976;52.942;6.810;2023-09-19T00:37:45;13.50;99.90
61094;DHT22;46976;52.942;6.810;2023-09-19T00:40:11;13.40;99.90
61094;DHT22;46976;52.942;6.810;2023-09-19T00:42:41;13.40;99.90
61094;DHT22;46976;52.942;6.810;2023-09-19T00:45:08;13.40;99.90
61094;DHT22;46976;52.942;6.810;2023-09-19T00:47:36;13.30;99.90
61094;DHT22;46976;52.942;6.810;2023-09-19T00:50:04;13.20;99.90
61094;DHT22;46976;52.942;6.810;2023-09-19T00:52:34;13.20;99.90
61094;DHT22;46976;52.942;6.810;2023-09-19T00:55:02;13.10;99.90
61094;DHT22;46976;52.942;6.810;2023-09-19T00:57:29;13.10;99.90
61094;DHT22;46976;52.942;6.810;2023-09-19T00:59:54;13.00;99.90
61094;DHT22;46976;52.942;6.810;2023-09-19T01:02:21;13.00;99.90
61094;DHT22;46976;52.942;6.810;2023-09-19T01:04:46;13.00;99.90
61094;DHT22;46976;52.942;6.810;2023-09-19T01:07:12;12.90;99.90
61094;DHT22;46976;52.942;6.810;2023-09-19T01:09:41;12.90;99.90
61094;DHT22;46976;52.942;6.810;2023-09-19T01:12:07;12.90;99.90
61094;DHT22;46976;52.942;6.810;2023-09-19T01:14:54;12.90;99.90
61094;DHT22;46976;52.942;6.810;2023-09-19T01:17:39;12.90;99.90
61094;DHT22;46976;52.942;6.810;2023-09-19T01:20:11;12.90;99.90
61094;DHT22;46976;52.942;6.810;2023-09-19T01:22:56;12.80;99.90
61094;DHT22;46976;52.942;6.810;2023-09-19T01:31:09;12.90;99.90
61094;DHT22;46976;52.942;6.810;2023-09-19T01:33:55;12.90;99.90
61094;DHT22;46976;52.942;6.810;2023-09-19T01:36:37;12.90;99.90
61094;DHT22;46976;52.942;6.810;2023-09-19T01:39:11;13.00;99.90
61094;DHT22;46976;52.942;6.810;2023-09-19T01:44:44;12.90;99.90
61094;DHT22;46976;52.942;6.810;2023-09-19T01:52:45;12.80;99.90
61094;DHT22;46976;52.942;6.810;2023-09-19T01:55:14;12.80;99.90
61094;DHT22;46976;52.942;6.810;2023-09-19T01:57:49;12.70;99.90
61094;DHT22;46976;52.942;6.810;2023-09-19T02:00:18;12.70;99.90
61094;DHT22;46976;52.942;6.810;2023-09-19T02:02:47;12.70;99.90
61094;DHT22;46976;52.942;6.810;2023-09-19T02:05:13;12.70;99.90
61094;DHT22;46976;52.942;6.810;2023-09-19T02:07:48;12.70;99.90
61094;DHT22;46976;52.942;6.810;2023-09-19T02:10:13;12.60;99.90
61094;DHT22;46976;52.942;6.810;2023-09-19T02:12:39;12.60;99.90
61094;DHT22;46976;52.942;6.810;2023-09-19T02:15:05;12.60;99.90
61094;DHT22;46976;52.942;6.810;2023-09-19T02:17:32;12.60;99.90
61094;DHT22;46976;52.942;6.810;2023-09-19T02:19:58;12.60;99.90
61094;DHT22;46976;52.942;6.810;2023-09-19T02:22:24;12.60;99.90
61094;DHT22;46976;52.942;6.810;2023-09-19T02:24:50;12.50;99.90
61094;DHT22;46976;52.942;6.810;2023-09-19T02:27:16;12.50;99.90
61094;DHT22;46976;52.942;6.810;2023-09-19T02:29:43;12.50;99.90
61094;DHT22;46976;52.942;6.810;2023-09-19T02:32:09;12.50;99.90
61094;DHT22;46976;52.942;6.810;2023-09-19T02:34:35;12.50;99.90
61094;DHT22;46976;52.942;6.810;2023-09-19T02:37:03;12.50;99.90
61094;DHT22;46976;52.942;6.810;2023-09-19T02:39:30;12.50;99.90
61094;DHT22;46976;52.942;6.810;2023-09-19T02:41:56;12.40;99.90
61094;DHT22;46976;52.942;6.810;2023-09-19T02:44:22;12.50;99.90
61094;DHT22;46976;52.942;6.810;2023-09-19T02:46:49;12.50;99.90
61094;DHT22;46976;52.942;6.810;2023-09-19T02:49:15;12.50;99.90
61094;DHT22;46976;52.942;6.810;2023-09-19T02:51:40;12.40;99.90
61094;DHT22;46976;52.942;6.810;2023-09-19T02:54:07;12.40;99.90
61094;DHT22;46976;52.942;6.810;2023-09-19T02:56:32;12.40;99.90
61094;DHT22;46976;52.942;6.810;2023-09-19T02:58:58;12.50;99.90
61094;DHT22;46976;52.942;6.810;2023-09-19T03:01:26;12.40;99.90
61094;DHT22;46976;52.942;6.810;2023-09-19T03:03:53;12.40;99.90
61094;DHT22;46976;52.942;6.810;2023-09-19T03:06:19;12.40;99.90
61094;DHT22;46976;52.942;6.810;2023-09-19T03:08:46;12.40;99.90
61094;DHT22;46976;52.942;6.810;2023-09-19T03:11:12;12.40;99.90
61094;DHT22;46976;52.942;6.810;2023-09-19T03:13:40;12.30;99.90
61094;DHT22;46976;52.942;6.810;2023-09-19T03:16:07;12.30;99.90
61094;DHT22;46976;52.942;6.810;2023-09-19T03:18:36;12.30;99.90
61094;DHT22;46976;52.942;6.810;2023-09-19T03:21:01;12.40;99.90
61094;DHT22;46976;52.942;6.810;2023-09-19T03:23:28;12.40;99.90
61094;DHT22;46976;52.942;6.810;2023-09-19T03:25:57;12.40;99.90
61094;DHT22;46976;52.942;6.810;2023-09-19T03:28:24;12.40;99.90
61094;DHT22;46976;52.942;6.810;2023-09-19T03:31:04;12.40;99.90
61094;DHT22;46976;52.942;6.810;2023-09-19T03:33:30;12.50;99.90
61094;DHT22;46976;52.942;6.810;2023-09-19T03:35:59;12.50;99.90
61094;DHT22;46976;52.942;6.810;2023-09-19T03:38:27;12.50;99.90
61094;DHT22;46976;52.942;6.810;2023-09-19T03:40:54;12.50;99.90
61094;DHT22;46976;52.942;6.810;2023-09-19T03:43:19;12.50;99.90
61094;DHT22;46976;52.942;6.810;2023-09-19T03:45:45;12.50;99.90
61094;DHT22;46976;52.942;6.810;2023-09-19T03:48:13;12.50;99.90
61094;DHT22;46976;52.942;6.810;2023-09-19T03:50:39;12.50;99.90
61094;DHT22;46976;52.942;6.810;2023-09-19T03:53:05;12.50;99.90
61094;DHT22;46976;52.942;6.810;2023-09-19T03:55:33;12.50;99.90
61094;DHT22;46976;52.942;6.810;2023-09-19T03:58:01;12.50;99.90
61094;DHT22;46976;52.942;6.810;2023-09-19T04:00:27;12.50;99.90
61094;DHT22;46976;52.942;6.810;2023-09-19T04:02:55;12.60;99.90
61094;DHT22;46976;52.942;6.810;2023-09-19T04:05:22;12.60;99.90
61094;DHT22;46976;52.942;6.810;2023-09-19T04:07:48;12.60;99.90
61094;DHT22;46976;52.942;6.810;2023-09-19T04:10:14;12.60;99.90
61094;DHT22;46976;52.942;6.810;2023-09-19T04:12:40;12.60;99.90
61094;DHT22;46976;52.942;6.810;2023-09-19T04:15:06;12.60;99.90
61094;DHT22;46976;52.942;6.810;2023-09-19T04:17:33;12.60;99.90
61094;DHT22;46976;52.942;6.810;2023-09-19T04:19:59;12.60;99.90
61094;DHT22;46976;52.942;6.810;2023-09-19T04:22:25;12.60;99.90
61094;DHT22;46976;52.942;6.810;2023-09-19T04:24:50;12.60;99.90
61094;DHT22;46976;52.942;6.810;2023-09-19T04:27:16;12.60;99.90
61094;DHT22;46976;52.942;6.810;2023-09-19T04:29:42;12.60;99.90
61094;DHT22;46976;52.942;6.810;2023-09-19T04:32:08;12.60;99.90
61094;DHT22;46976;52.942;6.810;2023-09-19T04:34:35;12.70;99.90
61094;DHT22;46976;52.942;6.810;2023-09-19T04:37:01;12.70;99.90
61094;DHT22;46976;52.942;6.810;2023-09-19T04:39:27;12.80;99.90
61094;DHT22;46976;52.942;6.810;2023-09-19T04:41:54;12.80;99.90
61094;DHT22;46976;52.942;6.810;2023-09-19T04:44:20;12.90;99.90
61094;DHT22;46976;52.942;6.810;2023-09-19T04:46:47;12.90;99.90
61094;DHT22;46976;52.942;6.810;2023-09-19T04:49:12;13.00;99.90
61094;DHT22;46976;52.942;6.810;2023-09-19T04:51:39;13.10;99.90
61094;DHT22;46976;52.942;6.810;2023-09-19T04:54:06;13.20;99.90
61094;DHT22;46976;52.942;6.810;2023-09-19T04:56:32;13.20;99.90
61094;DHT22;46976;52.942;6.810;2023-09-19T04:58:58;13.20;99.90
61094;DHT22;46976;52.942;6.810;2023-09-19T05:01:24;13.30;99.90
61094;DHT22;46976;52.942;6.810;2023-09-19T05:03:50;13.30;99.90
61094;DHT22;46976;52.942;6.810;2023-09-19T05:06:21;13.30;99.90
61094;DHT22;46976;52.942;6.810;2023-09-19T05:08:48;13.40;99.90
61094;DHT22;46976;52.942;6.810;2023-09-19T05:11:18;13.40;99.90
61094;DHT22;46976;52.942;6.810;2023-09-19T05:13:45;13.40;99.90
61094;DHT22;46976;52.942;6.810;2023-09-19T05:16:11;13.40;99.90
61094;DHT22;46976;52.942;6.810;2023-09-19T05:18:36;13.40;99.90
61094;DHT22;46976;52.942;6.810;2023-09-19T05:21:02;13.40;99.90
61094;DHT22;46976;52.942;6.810;2023-09-19T05:23:28;13.40;99.90
61094;DHT22;46976;52.942;6.810;2023-09-19T05:25:54;13.40;99.90
61094;DHT22;46976;52.942;6.810;2023-09-19T05:28:22;13.40;99.90
61094;DHT22;46976;52.942;6.810;2023-09-19T05:30:48;13.40;99.90
61094;DHT22;46976;52.942;6.810;2023-09-19T05:33:14;13.40;99.90
61094;DHT22;46976;52.942;6.810;2023-09-19T05:35:40;13.40;99.90
61094;DHT22;46976;52.942;6.810;2023-09-19T05:38:07;13.40;99.90
61094;DHT22;46976;52.942;6.810;2023-09-19T05:40:38;13.30;99.90
61094;DHT22;46976;52.942;6.810;2023-09-19T05:43:06;13.30;99.90
61094;DHT22;46976;52.942;6.810;2023-09-19T05:45:32;13.30;99.90
61094;DHT22;46976;52.942;6.810;2023-09-19T05:48:10;13.30;99.90
61094;DHT22;46976;52.942;6.810;2023-09-19T05:50:39;13.30;99.90
61094;DHT22;46976;52.942;6.810;2023-09-19T05:53:05;13.40;99.90
61094;DHT22;46976;52.942;6.810;2023-09-19T05:55:32;13.30;99.90
61094;DHT22;46976;52.942;6.810;2023-09-19T05:57:58;13.30;99.90
61094;DHT22;46976;52.942;6.810;2023-09-19T06:00:24;13.30;99.90
61094;DHT22;46976;52.942;6.810;2023-09-19T06:02:56;13.30;99.90
61094;DHT22;46976;52.942;6.810;2023-09-19T06:05:23;13.20;99.90
61094;DHT22;46976;52.942;6.810;2023-09-19T06:07:49;13.20;99.90
61094;DHT22;46976;52.942;6.810;2023-09-19T06:10:16;13.20;99.90
61094;DHT22;46976;52.942;6.810;2023-09-19T06:12:43;13.20;99.90
61094;DHT22;46976;52.942;6.810;2023-09-19T06:15:12;13.20;99.90
61094;DHT22;46976;52.942;6.810;2023-09-19T06:17:50;13.10;99.90
61094;DHT22;46976;52.942;6.810;2023-09-19T06:20:16;13.10;99.90
61094;DHT22;46976;52.942;6.810;2023-09-19T06:22:44;13.10;99.90
61094;DHT22;46976;52.942;6.810;2023-09-19T06:25:11;13.10;99.90
61094;DHT22;46976;52.942;6.810;2023-09-19T06:27:40;13.10;99.90
61094;DHT22;46976;52.942;6.810;2023-09-19T06:30:08;13.20;99.90
61094;DHT22;46976;52.942;6.810;2023-09-19T06:32:35;13.20;99.90
61094;DHT22;46976;52.942;6.810;2023-09-19T06:35:00;13.30;99.90
61094;DHT22;46976;52.942;6.810;2023-09-19T06:37:29;13.30;99.90
61094;DHT22;46976;52.942;6.810;2023-09-19T06:39:56;13.30;99.90
61094;DHT22;46976;52.942;6.810;2023-09-19T06:42:22;13.40;99.90
61094;DHT22;46976;52.942;6.810;2023-09-19T06:44:49;13.40;99.90
61094;DHT22;46976;52.942;6.810;2023-09-19T06:47:14;13.40;99.90
61094;DHT22;46976;52.942;6.810;2023-09-19T06:49:41;13.50;99.90
61094;DHT22;46976;52.942;6.810;2023-09-19T06:52:09;13.50;99.90
61094;DHT22;46976;52.942;6.810;2023-09-19T06:54:35;13.50;99.90
61094;DHT22;46976;52.942;6.810;2023-09-19T06:57:01;13.50;99.90
61094;DHT22;46976;52.942;6.810;2023-09-19T06:59:27;13.60;99.90
61094;DHT22;46976;52.942;6.810;2023-09-19T07:01:53;13.60;99.90
61094;DHT22;46976;52.942;6.810;2023-09-19T07:04:18;13.60;99.90
61094;DHT22;46976;52.942;6.810;2023-09-19T07:06:56;13.60;99.90
61094;DHT22;46976;52.942;6.810;2023-09-19T07:09:23;13.70;99.90
61094;DHT22;46976;52.942;6.810;2023-09-19T07:11:52;13.70;99.90
61094;DHT22;46976;52.942;6.810;2023-09-19T07:14:18;13.70;99.90
61094;DHT22;46976;52.942;6.810;2023-09-19T07:16:45;13.70;99.90
61094;DHT22;46976;52.942;6.810;2023-09-19T07:19:13;13.70;99.90
61094;DHT22;46976;52.942;6.810;2023-09-19T07:21:40;13.80;99.90
61094;DHT22;46976;52.942;6.810;2023-09-19T07:24:08;13.80;99.90
61094;DHT22;46976;52.942;6.810;2023-09-19T07:26:35;13.90;99.90
61094;DHT22;46976;52.942;6.810;2023-09-19T07:29:03;14.00;99.90
61094;DHT22;46976;52.942;6.810;2023-09-19T07:31:30;14.00;99.90
61094;DHT22;46976;52.942;6.810;2023-09-19T07:33:57;14.10;99.90
61094;DHT22;46976;52.942;6.810;2023-09-19T07:36:34;14.20;99.90
61094;DHT22;46976;52.942;6.810;2023-09-19T07:39:00;14.30;99.90
61094;DHT22;46976;52.942;6.810;2023-09-19T07:41:37;14.40;99.90
61094;DHT22;46976;52.942;6.810;2023-09-19T07:44:09;14.50;99.90
61094;DHT22;46976;52.942;6.810;2023-09-19T07:46:39;14.50;99.90
61094;DHT22;46976;52.942;6.810;2023-09-19T07:49:04;14.60;99.90
61094;DHT22;46976;52.942;6.810;2023-09-19T07:51:31;14.50;99.90
61094;DHT22;46976;52.942;6.810;2023-09-19T07:53:58;14.60;99.90
61094;DHT22;46976;52.942;6.810;2023-09-19T07:56:24;14.50;99.90
61094;DHT22;46976;52.942;6.810;2023-09-19T07:58:51;14.60;99.90
61094;DHT22;46976;52.942;6.810;2023-09-19T08:01:17;14.50;99.90
61094;DHT22;46976;52.942;6.810;2023-09-19T08:03:43;14.60;99.90
61094;DHT22;46976;52.942;6.810;2023-09-19T08:06:12;14.60;99.90
61094;DHT22;46976;52.942;6.810;2023-09-19T08:08:39;14.70;99.90
61094;DHT22;46976;52.942;6.810;2023-09-19T08:11:06;14.80;99.90
61094;DHT22;46976;52.942;6.810;2023-09-19T08:13:42;14.90;99.90
61094;DHT22;46976;52.942;6.810;2023-09-19T08:16:16;15.00;99.90
61094;DHT22;46976;52.942;6.810;2023-09-19T08:18:47;15.10;99.90
61094;DHT22;46976;52.942;6.810;2023-09-19T08:21:13;15.10;99.90
61094;DHT22;46976;52.942;6.810;2023-09-19T08:23:41;15.20;99.90
61094;DHT22;46976;52.942;6.810;2023-09-19T08:26:07;15.20;99.90
61094;DHT22;46976;52.942;6.810;2023-09-19T08:28:37;15.30;99.90
61094;DHT22;46976;52.942;6.810;2023-09-19T08:31:06;15.40;99.90
61094;DHT22;46976;52.942;6.810;2023-09-19T08:33:33;15.40;99.90
61094;DHT22;46976;52.942;6.810;2023-09-19T08:35:59;15.50;99.90
61094;DHT22;46976;52.942;6.810;2023-09-19T08:38:25;15.50;99.90
61094;DHT22;46976;52.942;6.810;2023-09-19T08:40:58;15.60;99.90
61094;DHT22;46976;52.942;6.810;2023-09-19T08:43:25;15.60;99.90
61094;DHT22;46976;52.942;6.810;2023-09-19T08:45:54;15.70;99.90
61094;DHT22;46976;52.942;6.810;2023-09-19T08:48:25;15.80;99.90
61094;DHT22;46976;52.942;6.810;2023-09-19T08:51:07;15.80;99.90
61094;DHT22;46976;52.942;6.810;2023-09-19T08:53:50;15.80;99.90
61094;DHT22;46976;52.942;6.810;2023-09-19T08:56:17;15.90;99.90
61094;DHT22;46976;52.942;6.810;2023-09-19T08:59:03;15.90;99.90
61094;DHT22;46976;52.942;6.810;2023-09-19T09:01:31;16.00;99.90
61094;DHT22;46976;52.942;6.810;2023-09-19T09:03:58;16.10;99.90
61094;DHT22;46976;52.942;6.810;2023-09-19T09:06:25;16.20;99.90
61094;DHT22;46976;52.942;6.810;2023-09-19T09:08:51;16.40;99.90
61094;DHT22;46976;52.942;6.810;2023-09-19T09:11:18;16.50;99.90
61094;DHT22;46976;52.942;6.810;2023-09-19T09:13:45;16.60;99.90
61094;DHT22;46976;52.942;6.810;2023-09-19T09:16:12;16.60;99.90
61094;DHT22;46976;52.942;6.810;2023-09-19T09:18:39;16.70;99.90
61094;DHT22;46976;52.942;6.810;2023-09-19T09:21:04;16.70;99.90
61094;DHT22;46976;52.942;6.810;2023-09-19T09:23:30;16.70;99.90
61094;DHT22;46976;52.942;6.810;2023-09-19T09:25:59;16.70;99.90
61094;DHT22;46976;52.942;6.810;2023-09-19T09:28:29;16.70;99.90
61094;DHT22;46976;52.942;6.810;2023-09-19T09:30:57;16.90;99.90
61094;DHT22;46976;52.942;6.810;2023-09-19T09:33:34;16.90;99.90
61094;DHT22;46976;52.942;6.810;2023-09-19T09:36:01;17.00;99.90
61094;DHT22;46976;52.942;6.810;2023-09-19T09:38:30;17.10;99.90
61094;DHT22;46976;52.942;6.810;2023-09-19T09:41:09;17.20;99.90
61094;DHT22;46976;52.942;6.810;2023-09-19T09:43:42;17.20;99.90
61094;DHT22;46976;52.942;6.810;2023-09-19T09:46:17;17.20;99.90
61094;DHT22;46976;52.942;6.810;2023-09-19T09:51:39;17.40;99.90
61094;DHT22;46976;52.942;6.810;2023-09-19T09:54:16;17.40;99.90
61094;DHT22;46976;52.942;6.810;2023-09-19T09:56:58;17.50;99.90
61094;DHT22;46976;52.942;6.810;2023-09-19T09:59:49;17.60;99.90
61094;DHT22;46976;52.942;6.810;2023-09-19T10:02:17;17.70;99.90
61094;DHT22;46976;52.942;6.810;2023-09-19T10:04:56;17.80;99.90
61094;DHT22;46976;52.942;6.810;2023-09-19T10:07:32;17.90;99.90
61094;DHT22;46976;52.942;6.810;2023-09-19T10:09:59;18.10;99.90
61094;DHT22;46976;52.942;6.810;2023-09-19T10:12:38;18.30;99.90
61094;DHT22;46976;52.942;6.810;2023-09-19T10:15:03;18.30;99.90
61094;DHT22;46976;52.942;6.810;2023-09-19T10:17:33;18.30;99.90
61094;DHT22;46976;52.942;6.810;2023-09-19T10:20:00;18.20;99.90
61094;DHT22;46976;52.942;6.810;2023-09-19T10:22:35;18.10;99.90
61094;DHT22;46976;52.942;6.810;2023-09-19T10:25:04;18.10;99.90
61094;DHT22;46976;52.942;6.810;2023-09-19T10:27:32;18.10;99.90
61094;DHT22;46976;52.942;6.810;2023-09-19T10:30:06;18.00;99.90
61094;DHT22;46976;52.942;6.810;2023-09-19T10:32:35;18.00;99.90
61094;DHT22;46976;52.942;6.810;2023-09-19T10:35:02;18.00;99.90
61094;DHT22;46976;52.942;6.810;2023-09-19T10:37:32;18.00;99.90
61094;DHT22;46976;52.942;6.810;2023-09-19T10:39:59;18.10;99.90
61094;DHT22;46976;52.942;6.810;2023-09-19T10:42:26;18.20;99.90
61094;DHT22;46976;52.942;6.810;2023-09-19T10:44:58;18.50;99.90
61094;DHT22;46976;52.942;6.810;2023-09-19T10:47:26;18.50;99.90
61094;DHT22;46976;52.942;6.810;2023-09-19T10:49:51;18.50;99.90
61094;DHT22;46976;52.942;6.810;2023-09-19T10:52:25;18.50;99.90
61094;DHT22;46976;52.942;6.810;2023-09-19T10:54:54;18.50;99.90
61094;DHT22;46976;52.942;6.810;2023-09-19T10:57:23;18.40;99.90
61094;DHT22;46976;52.942;6.810;2023-09-19T11:00:06;18.40;99.90
61094;DHT22;46976;52.942;6.810;2023-09-19T11:05:32;18.50;99.90
61094;DHT22;46976;52.942;6.810;2023-09-19T11:07:59;18.60;99.90
61094;DHT22;46976;52.942;6.810;2023-09-19T11:13:29;19.00;99.90
61094;DHT22;46976;52.942;6.810;2023-09-19T11:16:04;19.10;99.90
61094;DHT22;46976;52.942;6.810;2023-09-19T11:18:51;19.20;99.90
61094;DHT22;46976;52.942;6.810;2023-09-19T11:26:48;19.30;99.90
61094;DHT22;46976;52.942;6.810;2023-09-19T11:29:32;19.10;99.90
61094;DHT22;46976;52.942;6.810;2023-09-19T11:31:58;19.10;99.90
61094;DHT22;46976;52.942;6.810;2023-09-19T11:39:37;19.40;99.90
61094;DHT22;46976;52.942;6.810;2023-09-19T11:45:07;19.60;99.90
61094;DHT22;46976;52.942;6.810;2023-09-19T11:47:33;19.70;98.70
61094;DHT22;46976;52.942;6.810;2023-09-19T11:50:01;19.70;98.70
61094;DHT22;46976;52.942;6.810;2023-09-19T11:52:28;19.70;99.90
61094;DHT22;46976;52.942;6.810;2023-09-19T11:55:01;19.60;98.10
61094;DHT22;46976;52.942;6.810;2023-09-19T11:57:28;19.30;95.20
61094;DHT22;46976;52.942;6.810;2023-09-19T11:59:55;19.30;99.20
61094;DHT22;46976;52.942;6.810;2023-09-19T12:02:39;19.10;98.30
61094;DHT22;46976;52.942;6.810;2023-09-19T12:05:08;19.10;98.80
61094;DHT22;46976;52.942;6.810;2023-09-19T12:07:43;19.00;98.50
61094;DHT22;46976;52.942;6.810;2023-09-19T12:10:11;18.90;95.60
61094;DHT22;46976;52.942;6.810;2023-09-19T12:12:37;18.90;98.50
61094;DHT22;46976;52.942;6.810;2023-09-19T12:15:03;18.90;99.90
61094;DHT22;46976;52.942;6.810;2023-09-19T12:17:40;18.90;99.90
61094;DHT22;46976;52.942;6.810;2023-09-19T12:20:10;18.90;99.20
61094;DHT22;46976;52.942;6.810;2023-09-19T12:22:46;19.00;98.60
61094;DHT22;46976;52.942;6.810;2023-09-19T12:25:13;19.10;98.40
61094;DHT22;46976;52.942;6.810;2023-09-19T12:27:46;19.00;99.40
61094;DHT22;46976;52.942;6.810;2023-09-19T12:30:13;18.90;97.60
61094;DHT22;46976;52.942;6.810;2023-09-19T12:32:45;18.80;98.40
61094;DHT22;46976;52.942;6.810;2023-09-19T12:35:29;18.70;99.30
61094;DHT22;46976;52.942;6.810;2023-09-19T12:37:56;18.60;97.30
61094;DHT22;46976;52.942;6.810;2023-09-19T12:40:23;18.40;98.90
61094;DHT22;46976;52.942;6.810;2023-09-19T12:42:53;18.30;99.90
61094;DHT22;46976;52.942;6.810;2023-09-19T12:45:24;18.20;99.90
61094;DHT22;46976;52.942;6.810;2023-09-19T12:53:43;18.20;99.90
61094;DHT22;46976;52.942;6.810;2023-09-19T12:56:11;18.30;99.90
61094;DHT22;46976;52.942;6.810;2023-09-19T12:58:55;18.40;99.90
61094;DHT22;46976;52.942;6.810;2023-09-19T13:01:25;18.40;99.90
61094;DHT22;46976;52.942;6.810;2023-09-19T13:04:18;18.40;99.90
61094;DHT22;46976;52.942;6.810;2023-09-19T13:06:49;18.40;99.90
61094;DHT22;46976;52.942;6.810;2023-09-19T13:09:16;18.30;99.90
61094;DHT22;46976;52.942;6.810;2023-09-19T13:11:42;18.30;99.90
61094;DHT22;46976;52.942;6.810;2023-09-19T13:14:15;18.20;99.90
61094;DHT22;46976;52.942;6.810;2023-09-19T13:17:02;18.20;99.90
61094;DHT22;46976;52.942;6.810;2023-09-19T13:19:49;18.20;99.90
61094;DHT22;46976;52.942;6.810;2023-09-19T13:22:40;18.10;99.90
61094;DHT22;46976;52.942;6.810;2023-09-19T13:25:09;18.10;99.90
61094;DHT22;46976;52.942;6.810;2023-09-19T13:27:42;18.10;99.90
61094;DHT22;46976;52.942;6.810;2023-09-19T13:30:10;18.00;99.90
61094;DHT22;46976;52.942;6.810;2023-09-19T13:32:35;17.90;99.90
61094;DHT22;46976;52.942;6.810;2023-09-19T13:35:01;17.90;99.90
61094;DHT22;46976;52.942;6.810;2023-09-19T13:37:27;17.90;99.90
61094;DHT22;46976;52.942;6.810;2023-09-19T13:39:52;17.90;99.90
61094;DHT22;46976;52.942;6.810;2023-09-19T13:42:19;17.80;99.90
61094;DHT22;46976;52.942;6.810;2023-09-19T13:44:47;17.80;99.90
61094;DHT22;46976;52.942;6.810;2023-09-19T13:47:13;17.80;99.90
61094;DHT22;46976;52.942;6.810;2023-09-19T13:49:40;17.80;99.90
61094;DHT22;46976;52.942;6.810;2023-09-19T13:52:06;17.80;99.90
61094;DHT22;46976;52.942;6.810;2023-09-19T13:54:32;17.90;99.90
61094;DHT22;46976;52.942;6.810;2023-09-19T13:56:58;17.90;99.90
61094;DHT22;46976;52.942;6.810;2023-09-19T13:59:24;17.90;99.90
61094;DHT22;46976;52.942;6.810;2023-09-19T14:01:50;17.90;99.90
61094;DHT22;46976;52.942;6.810;2023-09-19T14:04:16;17.90;99.90
61094;DHT22;46976;52.942;6.810;2023-09-19T14:06:42;18.00;99.90
61094;DHT22;46976;52.942;6.810;2023-09-19T14:09:08;18.00;99.90
61094;DHT22;46976;52.942;6.810;2023-09-19T14:11:36;18.00;99.90
61094;DHT22;46976;52.942;6.810;2023-09-19T14:14:01;18.00;99.90
61094;DHT22;46976;52.942;6.810;2023-09-19T14:16:27;18.00;99.90
61094;DHT22;46976;52.942;6.810;2023-09-19T14:18:56;18.10;99.90
61094;DHT22;46976;52.942;6.810;2023-09-19T14:21:22;18.10;99.90
61094;DHT22;46976;52.942;6.810;2023-09-19T14:23:48;18.20;99.90
61094;DHT22;46976;52.942;6.810;2023-09-19T14:26:14;18.30;99.90
61094;DHT22;46976;52.942;6.810;2023-09-19T14:28:41;18.40;99.90
61094;DHT22;46976;52.942;6.810;2023-09-19T14:31:10;18.50;99.90
61094;DHT22;46976;52.942;6.810;2023-09-19T14:33:37;18.50;99.90
61094;DHT22;46976;52.942;6.810;2023-09-19T14:36:08;18.60;99.90
61094;DHT22;46976;52.942;6.810;2023-09-19T14:38:36;18.60;99.90
61094;DHT22;46976;52.942;6.810;2023-09-19T14:41:03;18.60;99.90
61094;DHT22;46976;52.942;6.810;2023-09-19T14:43:29;18.60;99.90
61094;DHT22;46976;52.942;6.810;2023-09-19T14:46:05;18.60;99.90
61094;DHT22;46976;52.942;6.810;2023-09-19T14:48:36;18.50;99.90
61094;DHT22;46976;52.942;6.810;2023-09-19T14:51:05;18.50;99.90
61094;DHT22;46976;52.942;6.810;2023-09-19T14:53:33;18.40;99.90
61094;DHT22;46976;52.942;6.810;2023-09-19T14:56:02;18.40;99.90
61094;DHT22;46976;52.942;6.810;2023-09-19T14:58:31;18.40;99.90
61094;DHT22;46976;52.942;6.810;2023-09-19T15:01:11;18.30;99.90
61094;DHT22;46976;52.942;6.810;2023-09-19T15:03:38;18.30;99.90
61094;DHT22;46976;52.942;6.810;2023-09-19T15:06:12;18.30;99.90
61094;DHT22;46976;52.942;6.810;2023-09-19T15:08:43;18.30;99.90
61094;DHT22;46976;52.942;6.810;2023-09-19T15:11:13;18.30;99.90
61094;DHT22;46976;52.942;6.810;2023-09-19T15:13:42;18.30;99.90
61094;DHT22;46976;52.942;6.810;2023-09-19T15:16:08;18.30;99.90
61094;DHT22;46976;52.942;6.810;2023-09-19T15:18:37;18.30;99.90
61094;DHT22;46976;52.942;6.810;2023-09-19T15:21:07;18.30;99.90
61094;DHT22;46976;52.942;6.810;2023-09-19T15:23:33;18.30;99.90
61094;DHT22;46976;52.942;6.810;2023-09-19T15:26:03;18.20;99.90
61094;DHT22;46976;52.942;6.810;2023-09-19T15:28:30;18.20;99.90
61094;DHT22;46976;52.942;6.810;2023-09-19T15:30:59;18.20;99.90
61094;DHT22;46976;52.942;6.810;2023-09-19T15:33:25;18.10;99.90
61094;DHT22;46976;52.942;6.810;2023-09-19T15:36:03;18.10;99.90
61094;DHT22;46976;52.942;6.810;2023-09-19T15:38:30;18.00;99.90
61094;DHT22;46976;52.942;6.810;2023-09-19T15:41:00;18.00;99.90
61094;DHT22;46976;52.942;6.810;2023-09-19T15:43:26;18.00;99.90
61094;DHT22;46976;52.942;6.810;2023-09-19T15:45:51;18.00;99.90
61094;DHT22;46976;52.942;6.810;2023-09-19T15:48:17;18.00;99.90
61094;DHT22;46976;52.942;6.810;2023-09-19T15:50:44;18.00;99.90
61094;DHT22;46976;52.942;6.810;2023-09-19T15:53:10;18.00;99.90
61094;DHT22;46976;52.942;6.810;2023-09-19T15:55:41;17.90;99.90
61094;DHT22;46976;52.942;6.810;2023-09-19T15:58:07;18.00;99.90
61094;DHT22;46976;52.942;6.810;2023-09-19T16:00:33;17.90;99.90
61094;DHT22;46976;52.942;6.810;2023-09-19T16:03:02;17.80;99.90
61094;DHT22;46976;52.942;6.810;2023-09-19T16:05:34;17.80;99.90
61094;DHT22;46976;52.942;6.810;2023-09-19T16:08:03;17.60;99.90
61094;DHT22;46976;52.942;6.810;2023-09-19T16:10:29;17.60;99.90
61094;DHT22;46976;52.942;6.810;2023-09-19T16:12:55;17.60;99.90
61094;DHT22;46976;52.942;6.810;2023-09-19T16:15:20;17.60;99.90
61094;DHT22;46976;52.942;6.810;2023-09-19T16:17:46;17.60;99.90
61094;DHT22;46976;52.942;6.810;2023-09-19T16:20:12;17.60;99.90
61094;DHT22;46976;52.942;6.810;2023-09-19T16:22:39;17.60;99.90